sensor_id;sensor_type;location;lat;lon;timestamp;pressure;altitude;pressure_sealevel;temperature
61189;BMP280;47054;39.716;2.904;2023-06-10T00:01:40;99882.44;;;23.61
61189;BMP280;47054;39.716;2.904;2023-06-10T00:04:27;99877.03;;;23.61
61189;BMP280;47054;39.716;2.904;2023-06-10T00:07:12;99876.25;;;23.61
61189;BMP280;47054;39.716;2.904;2023-06-10T00:09:56;99882.09;;;23.59
61189;BMP280;47054;39.716;2.904;2023-06-10T00:12:41;99872.44;;;23.58
61189;BMP280;47054;39.716;2.904;2023-06-10T00:15:26;99876.75;;;23.56
61189;BMP280;47054;39.716;2.904;2023-06-10T00:18:11;99878.72;;;23.55
61189;BMP280;47054;39.716;2.904;2023-06-10T00:20:57;99875.66;;;23.53
61189;BMP280;47054;39.716;2.904;2023-06-10T00:23:47;99873.75;;;23.50
61189;BMP280;47054;39.716;2.904;2023-06-10T00:26:33;99872.66;;;23.48
61189;BMP280;47054;39.716;2.904;2023-06-10T00:29:19;99865.41;;;23.45
61189;BMP280;47054;39.716;2.904;2023-06-10T00:32:04;99862.00;;;23.41
61189;BMP280;47054;39.716;2.904;2023-06-10T00:34:49;99863.59;;;23.38
61189;BMP280;47054;39.716;2.904;2023-06-10T00:37:33;99853.59;;;23.35
61189;BMP280;47054;39.716;2.904;2023-06-10T00:40:20;99850.63;;;23.30
61189;BMP280;47054;39.716;2.904;2023-06-10T00:43:04;99852.91;;;23.31
61189;BMP280;47054;39.716;2.904;2023-06-10T00:45:49;99841.75;;;23.29
61189;BMP280;47054;39.716;2.904;2023-06-10T00:48:35;99849.50;;;23.27
61189;BMP280;47054;39.716;2.904;2023-06-10T00:51:21;99851.44;;;23.27
61189;BMP280;47054;39.716;2.904;2023-06-10T00:54:07;99856.91;;;23.23
61189;BMP280;47054;39.716;2.904;2023-06-10T00:56:53;99841.91;;;23.22
61189;BMP280;47054;39.716;2.904;2023-06-10T00:59:38;99848.47;;;23.21
61189;BMP280;47054;39.716;2.904;2023-06-10T01:02:23;99844.59;;;23.22
61189;BMP280;47054;39.716;2.904;2023-06-10T01:05:09;99837.59;;;23.25
61189;BMP280;47054;39.716;2.904;2023-06-10T01:08:01;99844.53;;;23.26
61189;BMP280;47054;39.716;2.904;2023-06-10T01:11:00;99835.19;;;23.27
61189;BMP280;47054;39.716;2.904;2023-06-10T01:13:45;99829.78;;;23.27
61189;BMP280;47054;39.716;2.904;2023-06-10T01:16:31;99841.38;;;23.27
61189;BMP280;47054;39.716;2.904;2023-06-10T01:19:15;99844.09;;;23.27
61189;BMP280;47054;39.716;2.904;2023-06-10T01:22:03;99839.88;;;23.26
61189;BMP280;47054;39.716;2.904;2023-06-10T01:24:47;99847.31;;;23.22
61189;BMP280;47054;39.716;2.904;2023-06-10T01:27:37;99834.59;;;23.19
61189;BMP280;47054;39.716;2.904;2023-06-10T01:30:27;99839.66;;;23.17
61189;BMP280;47054;39.716;2.904;2023-06-10T01:33:15;99844.38;;;23.13
61189;BMP280;47054;39.716;2.904;2023-06-10T01:36:02;99845.97;;;23.11
61189;BMP280;47054;39.716;2.904;2023-06-10T01:38:49;99841.72;;;23.10
61189;BMP280;47054;39.716;2.904;2023-06-10T01:41:35;99834.06;;;23.08
61189;BMP280;47054;39.716;2.904;2023-06-10T01:44:21;99839.53;;;23.05
61189;BMP280;47054;39.716;2.904;2023-06-10T01:47:06;99851.00;;;23.09
61189;BMP280;47054;39.716;2.904;2023-06-10T01:49:51;99842.19;;;23.08
61189;BMP280;47054;39.716;2.904;2023-06-10T01:52:35;99843.66;;;23.09
61189;BMP280;47054;39.716;2.904;2023-06-10T01:55:21;99848.69;;;23.11
61189;BMP280;47054;39.716;2.904;2023-06-10T01:58:06;99852.94;;;23.12
61189;BMP280;47054;39.716;2.904;2023-06-10T02:00:51;99854.09;;;23.11
61189;BMP280;47054;39.716;2.904;2023-06-10T02:03:35;99860.28;;;23.11
61189;BMP280;47054;39.716;2.904;2023-06-10T02:06:20;99856.34;;;23.12
61189;BMP280;47054;39.716;2.904;2023-06-10T02:09:05;99855.97;;;23.14
61189;BMP280;47054;39.716;2.904;2023-06-10T02:11:50;99854.03;;;23.14
61189;BMP280;47054;39.716;2.904;2023-06-10T02:14:34;99866.78;;;23.14
61189;BMP280;47054;39.716;2.904;2023-06-10T02:17:20;99859.44;;;23.14
61189;BMP280;47054;39.716;2.904;2023-06-10T02:20:05;99867.56;;;23.14
61189;BMP280;47054;39.716;2.904;2023-06-10T02:22:51;99865.63;;;23.15
61189;BMP280;47054;39.716;2.904;2023-06-10T02:25:35;99870.25;;;23.14
61189;BMP280;47054;39.716;2.904;2023-06-10T02:28:20;99868.72;;;23.13
61189;BMP280;47054;39.716;2.904;2023-06-10T02:31:05;99865.22;;;23.13
61189;BMP280;47054;39.716;2.904;2023-06-10T02:33:50;99869.16;;;23.12
61189;BMP280;47054;39.716;2.904;2023-06-10T02:36:34;99864.13;;;23.10
61189;BMP280;47054;39.716;2.904;2023-06-10T02:39:21;99854.94;;;23.08
61189;BMP280;47054;39.716;2.904;2023-06-10T02:42:07;99867.25;;;23.09
61189;BMP280;47054;39.716;2.904;2023-06-10T02:44:51;99868.00;;;23.09
61189;BMP280;47054;39.716;2.904;2023-06-10T02:47:47;99866.06;;;23.10
61189;BMP280;47054;39.716;2.904;2023-06-10T02:50:32;99864.53;;;23.09
61189;BMP280;47054;39.716;2.904;2023-06-10T02:53:31;99865.75;;;23.08
61189;BMP280;47054;39.716;2.904;2023-06-10T02:56:23;99859.56;;;23.07
61189;BMP280;47054;39.716;2.904;2023-06-10T02:59:07;99864.22;;;23.07
61189;BMP280;47054;39.716;2.904;2023-06-10T03:01:52;99856.53;;;23.05
61189;BMP280;47054;39.716;2.904;2023-06-10T03:04:39;99865.06;;;23.04
61189;BMP280;47054;39.716;2.904;2023-06-10T03:07:30;99859.28;;;23.02
61189;BMP280;47054;39.716;2.904;2023-06-10T03:10:17;99865.06;;;23.04
61189;BMP280;47054;39.716;2.904;2023-06-10T03:13:02;99859.97;;;23.06
61189;BMP280;47054;39.716;2.904;2023-06-10T03:15:47;99870.78;;;23.06
61189;BMP280;47054;39.716;2.904;2023-06-10T03:18:35;99863.44;;;23.06
61189;BMP280;47054;39.716;2.904;2023-06-10T03:21:22;99866.13;;;23.06
61189;BMP280;47054;39.716;2.904;2023-06-10T03:24:07;99869.63;;;23.07
61189;BMP280;47054;39.716;2.904;2023-06-10T03:26:53;99866.91;;;23.07
61189;BMP280;47054;39.716;2.904;2023-06-10T03:29:37;99878.91;;;23.06
61189;BMP280;47054;39.716;2.904;2023-06-10T03:32:24;99866.91;;;23.07
61189;BMP280;47054;39.716;2.904;2023-06-10T03:35:09;99876.97;;;23.06
61189;BMP280;47054;39.716;2.904;2023-06-10T03:37:55;99880.84;;;23.05
61189;BMP280;47054;39.716;2.904;2023-06-10T03:40:39;99865.38;;;23.06
61189;BMP280;47054;39.716;2.904;2023-06-10T03:43:24;99869.25;;;23.05
61189;BMP280;47054;39.716;2.904;2023-06-10T03:46:10;99863.81;;;23.08
61189;BMP280;47054;39.716;2.904;2023-06-10T03:48:56;99870.31;;;23.11
61189;BMP280;47054;39.716;2.904;2023-06-10T03:51:41;99869.16;;;23.12
61189;BMP280;47054;39.716;2.904;2023-06-10T03:54:27;99857.50;;;23.15
61189;BMP280;47054;39.716;2.904;2023-06-10T03:57:11;99848.16;;;23.16
61189;BMP280;47054;39.716;2.904;2023-06-10T03:59:55;99853.97;;;23.18
61189;BMP280;47054;39.716;2.904;2023-06-10T04:02:41;99851.56;;;23.20
61189;BMP280;47054;39.716;2.904;2023-06-10T04:05:34;99856.16;;;23.23
61189;BMP280;47054;39.716;2.904;2023-06-10T04:08:19;99852.66;;;23.26
61189;BMP280;47054;39.716;2.904;2023-06-10T04:11:05;99857.63;;;23.27
61189;BMP280;47054;39.716;2.904;2023-06-10T04:13:50;99859.50;;;23.30
61189;BMP280;47054;39.716;2.904;2023-06-10T04:16:35;99859.09;;;23.32
61189;BMP280;47054;39.716;2.904;2023-06-10T04:19:20;99857.16;;;23.32
61189;BMP280;47054;39.716;2.904;2023-06-10T04:22:06;99853.19;;;23.37
61189;BMP280;47054;39.716;2.904;2023-06-10T04:24:51;99861.66;;;23.39
61189;BMP280;47054;39.716;2.904;2023-06-10T04:27:37;99857.75;;;23.40
61189;BMP280;47054;39.716;2.904;2023-06-10T04:30:21;99868.91;;;23.42
61189;BMP280;47054;39.716;2.904;2023-06-10T04:33:08;99859.28;;;23.41
61189;BMP280;47054;39.716;2.904;2023-06-10T04:35:54;99863.09;;;23.43
61189;BMP280;47054;39.716;2.904;2023-06-10T04:38:41;99861.94;;;23.44
61189;BMP280;47054;39.716;2.904;2023-06-10T04:41:27;99854.16;;;23.46
61189;BMP280;47054;39.716;2.904;2023-06-10T04:44:12;99856.09;;;23.46
61189;BMP280;47054;39.716;2.904;2023-06-10T04:46:58;99863.00;;;23.47
61189;BMP280;47054;39.716;2.904;2023-06-10T04:49:43;99865.72;;;23.47
61189;BMP280;47054;39.716;2.904;2023-06-10T04:52:27;99863.09;;;23.43
61189;BMP280;47054;39.716;2.904;2023-06-10T04:55:12;99855.47;;;23.38
61189;BMP280;47054;39.716;2.904;2023-06-10T04:57:57;99859.09;;;23.32
61189;BMP280;47054;39.716;2.904;2023-06-10T05:00:41;99863.78;;;23.28
61189;BMP280;47054;39.716;2.904;2023-06-10T05:03:26;99865.41;;;23.25
61189;BMP280;47054;39.716;2.904;2023-06-10T05:06:11;99866.63;;;23.21
61189;BMP280;47054;39.716;2.904;2023-06-10T05:08:55;99858.19;;;23.19
61189;BMP280;47054;39.716;2.904;2023-06-10T05:11:40;99860.91;;;23.19
61189;BMP280;47054;39.716;2.904;2023-06-10T05:14:24;99859.69;;;23.20
61189;BMP280;47054;39.716;2.904;2023-06-10T05:17:09;99857.28;;;23.25
61189;BMP280;47054;39.716;2.904;2023-06-10T05:19:54;99862.63;;;23.29
61189;BMP280;47054;39.716;2.904;2023-06-10T05:22:38;99857.22;;;23.29
61189;BMP280;47054;39.716;2.904;2023-06-10T05:25:22;99854.09;;;23.30
61189;BMP280;47054;39.716;2.904;2023-06-10T05:28:07;99866.84;;;23.30
61189;BMP280;47054;39.716;2.904;2023-06-10T05:30:54;99854.09;;;23.30
61189;BMP280;47054;39.716;2.904;2023-06-10T05:33:39;99864.16;;;23.30
61189;BMP280;47054;39.716;2.904;2023-06-10T05:36:24;99864.16;;;23.30
61189;BMP280;47054;39.716;2.904;2023-06-10T05:39:10;99866.84;;;23.30
61189;BMP280;47054;39.716;2.904;2023-06-10T05:41:54;99874.97;;;23.30
61189;BMP280;47054;39.716;2.904;2023-06-10T05:44:39;99867.63;;;23.30
61189;BMP280;47054;39.716;2.904;2023-06-10T05:47:24;99869.13;;;23.31
61189;BMP280;47054;39.716;2.904;2023-06-10T05:50:09;99862.56;;;23.32
61189;BMP280;47054;39.716;2.904;2023-06-10T05:52:54;99861.72;;;23.35
61189;BMP280;47054;39.716;2.904;2023-06-10T05:55:39;99863.59;;;23.38
61189;BMP280;47054;39.716;2.904;2023-06-10T05:58:24;99861.16;;;23.44
61189;BMP280;47054;39.716;2.904;2023-06-10T06:01:09;99852.97;;;23.47
61189;BMP280;47054;39.716;2.904;2023-06-10T06:03:54;99854.09;;;23.50
61189;BMP280;47054;39.716;2.904;2023-06-10T06:06:39;99863.63;;;23.54
61189;BMP280;47054;39.716;2.904;2023-06-10T06:09:25;99863.56;;;23.58
61189;BMP280;47054;39.716;2.904;2023-06-10T06:12:10;99865.41;;;23.61
61189;BMP280;47054;39.716;2.904;2023-06-10T06:14:55;99866.47;;;23.67
61189;BMP280;47054;39.716;2.904;2023-06-10T06:17:39;99877.13;;;23.74
61189;BMP280;47054;39.716;2.904;2023-06-10T06:20:24;99871.66;;;23.77
61189;BMP280;47054;39.716;2.904;2023-06-10T06:23:09;99874.28;;;23.81
61189;BMP280;47054;39.716;2.904;2023-06-10T06:25:54;99878.09;;;23.83
61189;BMP280;47054;39.716;2.904;2023-06-10T06:28:39;99873.84;;;23.82
61189;BMP280;47054;39.716;2.904;2023-06-10T06:31:24;99887.66;;;23.88
61189;BMP280;47054;39.716;2.904;2023-06-10T06:34:09;99884.13;;;23.91
61189;BMP280;47054;39.716;2.904;2023-06-10T06:36:53;99889.00;;;23.96
61189;BMP280;47054;39.716;2.904;2023-06-10T06:39:38;99881.25;;;23.98
61189;BMP280;47054;39.716;2.904;2023-06-10T06:42:23;99888.63;;;23.98
61189;BMP280;47054;39.716;2.904;2023-06-10T06:45:34;99874.31;;;23.97
61189;BMP280;47054;39.716;2.904;2023-06-10T06:48:18;99882.34;;;24.01
61189;BMP280;47054;39.716;2.904;2023-06-10T06:51:03;99886.84;;;24.07
61189;BMP280;47054;39.716;2.904;2023-06-10T06:53:47;99884.03;;;24.11
61189;BMP280;47054;39.716;2.904;2023-06-10T06:56:34;99880.41;;;24.17
61189;BMP280;47054;39.716;2.904;2023-06-10T06:59:19;99888.78;;;24.23
61189;BMP280;47054;39.716;2.904;2023-06-10T07:02:03;99877.78;;;24.30
61189;BMP280;47054;39.716;2.904;2023-06-10T07:04:48;99881.91;;;24.34
61189;BMP280;47054;39.716;2.904;2023-06-10T07:07:34;99887.72;;;24.36
61189;BMP280;47054;39.716;2.904;2023-06-10T07:10:19;99883.38;;;24.39
61189;BMP280;47054;39.716;2.904;2023-06-10T07:13:06;99887.50;;;24.43
61189;BMP280;47054;39.716;2.904;2023-06-10T07:15:50;99883.97;;;24.46
61189;BMP280;47054;39.716;2.904;2023-06-10T07:18:35;99893.19;;;24.49
61189;BMP280;47054;39.716;2.904;2023-06-10T07:21:19;99896.16;;;24.54
61189;BMP280;47054;39.716;2.904;2023-06-10T07:24:04;99893.69;;;24.60
61189;BMP280;47054;39.716;2.904;2023-06-10T07:26:49;99895.03;;;24.68
61189;BMP280;47054;39.716;2.904;2023-06-10T07:29:33;99882.03;;;24.75
61189;BMP280;47054;39.716;2.904;2023-06-10T07:32:19;99878.81;;;24.80
61189;BMP280;47054;39.716;2.904;2023-06-10T07:35:09;99882.03;;;24.91
61189;BMP280;47054;39.716;2.904;2023-06-10T07:37:55;99878.25;;;25.02
61189;BMP280;47054;39.716;2.904;2023-06-10T07:40:40;99883.03;;;25.10
61189;BMP280;47054;39.716;2.904;2023-06-10T07:43:24;99875.38;;;25.21
61189;BMP280;47054;39.716;2.904;2023-06-10T07:46:09;99882.44;;;25.31
61189;BMP280;47054;39.716;2.904;2023-06-10T07:48:54;99883.66;;;25.43
61189;BMP280;47054;39.716;2.904;2023-06-10T07:51:39;99871.75;;;25.53
61189;BMP280;47054;39.716;2.904;2023-06-10T07:54:23;99869.13;;;25.62
61189;BMP280;47054;39.716;2.904;2023-06-10T07:57:08;99875.88;;;25.70
61189;BMP280;47054;39.716;2.904;2023-06-10T07:59:52;99876.31;;;25.81
61189;BMP280;47054;39.716;2.904;2023-06-10T08:02:37;99872.03;;;25.92
61189;BMP280;47054;39.716;2.904;2023-06-10T19:26:11;99943.38;;;27.33
61189;BMP280;47054;39.716;2.904;2023-06-10T19:28:56;99952.72;;;27.53
61189;BMP280;47054;39.716;2.904;2023-06-10T19:31:41;99959.91;;;27.69
61189;BMP280;47054;39.716;2.904;2023-06-10T19:34:26;99948.28;;;27.78
61189;BMP280;47054;39.716;2.904;2023-06-10T19:37:11;99961.81;;;27.90
61189;BMP280;47054;39.716;2.904;2023-06-10T19:39:56;99960.91;;;27.93
61189;BMP280;47054;39.716;2.904;2023-06-10T19:42:41;99967.72;;;27.98
61189;BMP280;47054;39.716;2.904;2023-06-10T19:45:25;99967.59;;;28.01
61189;BMP280;47054;39.716;2.904;2023-06-10T19:48:10;99978.50;;;28.01
61189;BMP280;47054;39.716;2.904;2023-06-10T19:50:55;99975.00;;;28.01
61189;BMP280;47054;39.716;2.904;2023-06-10T19:53:39;99974.81;;;27.95
61189;BMP280;47054;39.716;2.904;2023-06-10T19:56:24;99984.53;;;27.96
61189;BMP280;47054;39.716;2.904;2023-06-10T19:59:09;99982.38;;;27.91
61189;BMP280;47054;39.716;2.904;2023-06-10T20:01:54;99993.09;;;27.86
61189;BMP280;47054;39.716;2.904;2023-06-10T20:04:38;99994.91;;;27.80
61189;BMP280;47054;39.716;2.904;2023-06-10T20:07:24;99988.03;;;27.66
61189;BMP280;47054;39.716;2.904;2023-06-10T20:10:09;100000.00;;;27.69
61189;BMP280;47054;39.716;2.904;2023-06-10T20:12:54;100004.06;;;27.64
61189;BMP280;47054;39.716;2.904;2023-06-10T20:15:39;100008.91;;;27.60
61189;BMP280;47054;39.716;2.904;2023-06-10T20:18:24;100002.94;;;27.52
61189;BMP280;47054;39.716;2.904;2023-06-10T20:21:08;100008.50;;;27.49
61189;BMP280;47054;39.716;2.904;2023-06-10T20:23:53;100008.50;;;27.49
61189;BMP280;47054;39.716;2.904;2023-06-10T20:26:38;100003.19;;;27.45
61189;BMP280;47054;39.716;2.904;2023-06-10T20:29:23;100002.25;;;27.39
61189;BMP280;47054;39.716;2.904;2023-06-10T20:32:42;100005.84;;;27.36
61189;BMP280;47054;39.716;2.904;2023-06-10T20:35:26;100013.19;;;27.27
61189;BMP280;47054;39.716;2.904;2023-06-10T20:38:11;100009.97;;;27.19
61189;BMP280;47054;39.716;2.904;2023-06-10T20:40:56;100010.22;;;27.12
61189;BMP280;47054;39.716;2.904;2023-06-10T20:43:42;100017.91;;;27.14
61189;BMP280;47054;39.716;2.904;2023-06-10T20:46:27;100028.06;;;27.13
61189;BMP280;47054;39.716;2.904;2023-06-10T20:49:11;100025.78;;;27.12
61189;BMP280;47054;39.716;2.904;2023-06-10T20:51:56;100030.25;;;27.06
61189;BMP280;47054;39.716;2.904;2023-06-10T20:54:40;100030.84;;;27.01
61189;BMP280;47054;39.716;2.904;2023-06-10T20:57:25;100031.84;;;26.94
61189;BMP280;47054;39.716;2.904;2023-06-10T21:00:10;100023.44;;;26.89
61189;BMP280;47054;39.716;2.904;2023-06-10T21:02:55;100028.28;;;26.85
61189;BMP280;47054;39.716;2.904;2023-06-10T21:05:40;100020.25;;;26.81
61189;BMP280;47054;39.716;2.904;2023-06-10T21:08:25;100031.66;;;26.76
61189;BMP280;47054;39.716;2.904;2023-06-10T21:11:10;100035.69;;;26.72
61189;BMP280;47054;39.716;2.904;2023-06-10T21:13:55;100014.38;;;26.70
61189;BMP280;47054;39.716;2.904;2023-06-10T21:16:39;100021.91;;;26.66
61189;BMP280;47054;39.716;2.904;2023-06-10T21:19:24;100021.25;;;26.62
61189;BMP280;47054;39.716;2.904;2023-06-10T21:22:09;100019.06;;;26.57
61189;BMP280;47054;39.716;2.904;2023-06-10T21:24:55;100021.91;;;26.54
61189;BMP280;47054;39.716;2.904;2023-06-10T21:27:40;100020.03;;;26.51
61189;BMP280;47054;39.716;2.904;2023-06-10T21:30:24;100025.28;;;26.45
61189;BMP280;47054;39.716;2.904;2023-06-10T21:33:12;100029.66;;;26.43
61189;BMP280;47054;39.716;2.904;2023-06-10T21:35:57;100018.13;;;26.39
61189;BMP280;47054;39.716;2.904;2023-06-10T21:42:44;100036.28;;;26.29
61189;BMP280;47054;39.716;2.904;2023-06-10T21:45:34;100034.09;;;26.24
61189;BMP280;47054;39.716;2.904;2023-06-10T21:48:20;100039.22;;;26.22
61189;BMP280;47054;39.716;2.904;2023-06-10T21:51:06;100043.13;;;26.21
61189;BMP280;47054;39.716;2.904;2023-06-10T21:53:51;100050.63;;;26.17
61189;BMP280;47054;39.716;2.904;2023-06-10T21:57:03;100047.91;;;26.17
61189;BMP280;47054;39.716;2.904;2023-06-10T21:59:48;100052.00;;;26.09
61189;BMP280;47054;39.716;2.904;2023-06-10T22:16:19;100029.69;;;25.76
61189;BMP280;47054;39.716;2.904;2023-06-10T22:19:04;100031.75;;;25.72
61189;BMP280;47054;39.716;2.904;2023-06-10T22:21:49;100037.63;;;25.71
61189;BMP280;47054;39.716;2.904;2023-06-10T22:24:38;100029.88;;;25.69
61189;BMP280;47054;39.716;2.904;2023-06-10T22:27:24;100033.91;;;25.65
61189;BMP280;47054;39.716;2.904;2023-06-10T22:30:11;100031.19;;;25.65
61189;BMP280;47054;39.716;2.904;2023-06-10T22:32:58;100031.19;;;25.65
61189;BMP280;47054;39.716;2.904;2023-06-10T22:35:45;100030.50;;;25.61
61189;BMP280;47054;39.716;2.904;2023-06-10T22:38:29;100039.84;;;25.60
61189;BMP280;47054;39.716;2.904;2023-06-10T22:41:15;100032.13;;;25.58
61189;BMP280;47054;39.716;2.904;2023-06-10T22:43:59;100031.16;;;25.52
61189;BMP280;47054;39.716;2.904;2023-06-10T22:46:44;100036.69;;;25.49
61189;BMP280;47054;39.716;2.904;2023-06-10T22:49:29;100038.63;;;25.48
61189;BMP280;47054;39.716;2.904;2023-06-10T22:52:15;100039.06;;;25.47
61189;BMP280;47054;39.716;2.904;2023-06-10T22:55:00;100030.66;;;25.41
61189;BMP280;47054;39.716;2.904;2023-06-10T22:57:45;100037.28;;;25.40
61189;BMP280;47054;39.716;2.904;2023-06-10T23:00:31;100027.28;;;25.37
61189;BMP280;47054;39.716;2.904;2023-06-10T23:03:15;100029.69;;;25.35
61189;BMP280;47054;39.716;2.904;2023-06-10T23:06:00;100022.72;;;25.34
61189;BMP280;47054;39.716;2.904;2023-06-10T23:08:46;100033.25;;;25.32
61189;BMP280;47054;39.716;2.904;2023-06-10T23:11:30;100029.78;;;25.32
61189;BMP280;47054;39.716;2.904;2023-06-10T23:14:15;100016.19;;;25.32
61189;BMP280;47054;39.716;2.904;2023-06-10T23:17:00;100015.75;;;25.33
61189;BMP280;47054;39.716;2.904;2023-06-10T23:19:46;100008.81;;;25.32
61189;BMP280;47054;39.716;2.904;2023-06-10T23:22:31;100010.78;;;25.32
61189;BMP280;47054;39.716;2.904;2023-06-10T23:25:18;100008.47;;;25.30
61189;BMP280;47054;39.716;2.904;2023-06-10T23:28:06;100013.13;;;25.30
61189;BMP280;47054;39.716;2.904;2023-06-10T23:30:54;100004.56;;;25.31
61189;BMP280;47054;39.716;2.904;2023-06-10T23:33:39;99998.28;;;25.34
61189;BMP280;47054;39.716;2.904;2023-06-10T23:36:25;99999.72;;;25.39
61189;BMP280;47054;39.716;2.904;2023-06-10T23:39:10;99998.53;;;25.40
61189;BMP280;47054;39.716;2.904;2023-06-10T23:41:55;100005.06;;;25.42
61189;BMP280;47054;39.716;2.904;2023-06-10T23:44:41;99991.81;;;25.44
61189;BMP280;47054;39.716;2.904;2023-06-10T23:47:26;99990.63;;;25.45
61189;BMP280;47054;39.716;2.904;2023-06-10T23:50:11;100004.19;;;25.45
61189;BMP280;47054;39.716;2.904;2023-06-10T23:52:56;100012.66;;;25.47
61189;BMP280;47054;39.716;2.904;2023-06-10T23:55:41;100004.88;;;25.49
61189;BMP280;47054;39.716;2.904;2023-06-10T23:58:26;100020.28;;;25.52
